Time;durP1;ratioP1;P1;durP2;ratioP2;P2;SDS_P1;SDS_P2;PMS_P1;PMS_P2;Temp;Humidity;BMP_temperature;BMP_pressure;BME280_temperature;BME280_humidity;BME280_pressure;Samples;Min_cycle;Max_cycle;Signal;HPM_P1;HPM_P2
2021/11/29 00:02:25;;;;;;;4.95;3.22;;;2.30;84.20;;;;;;4919521;29;20062;-94
2021/11/29 00:04:53;;;;;;;5.13;3.00;;;2.30;84.20;;;;;;4919044;29;20470;-93
2021/11/29 00:07:20;;;;;;;4.88;2.70;;;2.30;84.10;;;;;;4921032;29;20056;-94
2021/11/29 00:09:48;;;;;;;4.80;2.80;;;2.30;84.20;;;;;;4905255;29;20060;-94
2021/11/29 00:12:17;;;;;;;4.28;2.53;;;2.30;84.20;;;;;;4922813;29;20071;-94
2021/11/29 00:14:44;;;;;;;4.32;2.70;;;2.30;84.20;;;;;;4908285;29;20072;-95
2021/11/29 00:17:13;;;;;;;4.63;2.80;;;2.30;84.20;;;;;;4902637;29;20143;-93
2021/11/29 00:19:41;;;;;;;4.25;2.53;;;2.30;84.20;;;;;;4907061;29;20522;-94
2021/11/29 00:22:11;;;;;;;4.18;2.50;;;2.30;84.20;;;;;;4890910;29;20059;-94
2021/11/29 00:24:40;;;;;;;4.00;2.50;;;2.30;84.10;;;;;;4907844;29;20080;-94
2021/11/29 00:27:09;;;;;;;6.15;2.70;;;2.30;84.10;;;;;;4910874;29;20150;-94
2021/11/29 00:29:36;;;;;;;3.60;2.17;;;2.30;84.20;;;;;;4902696;29;20041;-94
2021/11/29 00:32:07;;;;;;;4.10;2.30;;;2.20;84.10;;;;;;4907329;29;20052;-94
2021/11/29 00:34:35;;;;;;;4.20;2.50;;;2.20;84.10;;;;;;4888529;29;20167;-93
2021/11/29 00:37:03;;;;;;;4.20;2.30;;;2.20;84.10;;;;;;4900672;29;20062;-94
2021/11/29 00:39:31;;;;;;;4.13;2.15;;;2.20;84.10;;;;;;4900161;29;20055;-94
2021/11/29 00:41:59;;;;;;;3.95;2.10;;;2.20;84.10;;;;;;4899611;29;20058;-93
2021/11/29 00:44:26;;;;;;;4.15;2.25;;;2.20;84.10;;;;;;4913551;29;20509;-94
2021/11/29 00:46:55;;;;;;;3.78;2.13;;;2.20;84.10;;;;;;4912626;29;20049;-94
2021/11/29 00:49:22;;;;;;;4.28;2.30;;;2.20;84.10;;;;;;4912566;29;20052;-93
2021/11/29 00:51:49;;;;;;;3.72;1.95;;;2.20;84.10;;;;;;4895154;29;20073;-94
2021/11/29 00:54:16;;;;;;;3.45;1.90;;;2.20;84.10;;;;;;4910946;29;20057;-94
2021/11/29 00:56:43;;;;;;;5.45;2.05;;;2.20;84.10;;;;;;4911022;29;20049;-93
2021/11/29 00:59:10;;;;;;;3.47;2.00;;;2.20;84.10;;;;;;4911157;29;20048;-93
2021/11/29 01:01:39;;;;;;;5.20;2.22;;;2.20;84.10;;;;;;4895632;29;20060;-96
2021/11/29 01:04:06;;;;;;;3.55;1.95;;;2.20;84.10;;;;;;4913028;29;20071;-94
2021/11/29 01:06:33;;;;;;;4.45;2.03;;;2.10;84.10;;;;;;4895213;29;20059;-93
2021/11/29 01:09:01;;;;;;;4.22;2.45;;;2.20;84.10;;;;;;4909507;29;20053;-95
2021/11/29 01:11:28;;;;;;;3.53;1.88;;;2.20;84.10;;;;;;4908941;29;20048;-94
2021/11/29 01:13:55;;;;;;;3.72;2.00;;;2.20;84.10;;;;;;4896927;29;20430;-94
2021/11/29 01:16:23;;;;;;;3.60;2.10;;;2.20;84.10;;;;;;4914606;29;20056;-95
2021/11/29 01:18:50;;;;;;;3.67;2.25;;;2.20;84.10;;;;;;4913613;29;20143;-93
2021/11/29 01:21:18;;;;;;;3.83;1.88;;;2.20;84.10;;;;;;4913035;29;20063;-94
2021/11/29 01:23:45;;;;;;;4.05;1.90;;;2.10;84.10;;;;;;4912891;29;20086;-95
2021/11/29 01:26:13;;;;;;;3.03;1.70;;;2.10;84.10;;;;;;4898304;29;20053;-94
2021/11/29 01:28:41;;;;;;;3.65;1.67;;;2.10;84.10;;;;;;4882808;29;20060;-94
2021/11/29 01:31:08;;;;;;;3.88;2.10;;;2.10;84.10;;;;;;4895574;29;20056;-94
2021/11/29 01:33:36;;;;;;;4.07;2.00;;;2.10;84.10;;;;;;4897630;29;20539;-94
2021/11/29 01:36:04;;;;;;;3.13;1.67;;;2.10;84.10;;;;;;4911696;29;20067;-94
2021/11/29 01:38:32;;;;;;;3.97;1.80;;;2.10;84.10;;;;;;4914396;29;20466;-93
2021/11/29 01:40:59;;;;;;;3.15;1.52;;;2.10;84.10;;;;;;4913532;29;20056;-93
2021/11/29 01:43:26;;;;;;;3.53;1.80;;;2.10;84.10;;;;;;4898414;29;20051;-93
2021/11/29 01:45:56;;;;;;;3.42;1.70;;;2.10;84.10;;;;;;4912985;29;20060;-94
2021/11/29 01:48:25;;;;;;;3.75;1.73;;;2.10;84.10;;;;;;4911934;29;20056;-94
2021/11/29 01:50:58;;;;;;;3.20;1.67;;;2.10;84.10;;;;;;4912607;29;20056;-95
2021/11/29 01:53:28;;;;;;;3.70;1.80;;;2.10;84.10;;;;;;4911859;29;20067;-94
2021/11/29 01:55:59;;;;;;;3.15;1.35;;;2.10;84.10;;;;;;4912695;29;20057;-93
2021/11/29 01:58:28;;;;;;;2.42;1.30;;;2.10;84.10;;;;;;4896978;29;20055;-94
2021/11/29 02:00:58;;;;;;;2.90;1.42;;;2.10;84.10;;;;;;4897066;29;20055;-93
2021/11/29 02:03:26;;;;;;;3.17;1.50;;;2.10;84.10;;;;;;4911383;29;20072;-93
2021/11/29 02:05:54;;;;;;;3.05;1.50;;;2.10;84.10;;;;;;4912550;29;20103;-95
2021/11/29 02:08:22;;;;;;;3.13;1.30;;;2.00;84.10;;;;;;4912481;29;20557;-94
2021/11/29 02:10:49;;;;;;;2.13;1.10;;;2.00;84.10;;;;;;4912534;29;20403;-94
2021/11/29 02:13:18;;;;;;;2.05;1.10;;;2.00;84.10;;;;;;4898091;29;20071;-93
2021/11/29 02:15:50;;;;;;;1.58;0.80;;;2.10;84.10;;;;;;4912561;29;20060;-92
2021/11/29 02:18:23;;;;;;;2.42;1.00;;;2.00;84.10;;;;;;4911399;29;20510;-92
2021/11/29 02:21:06;;;;;;;3.05;1.13;;;2.00;84.10;;;;;;4910843;29;20076;-93
2021/11/29 02:23:35;;;;;;;3.25;1.00;;;2.00;84.10;;;;;;4912178;29;20063;-93
2021/11/29 02:26:03;;;;;;;2.65;1.10;;;2.00;84.10;;;;;;4895158;29;20083;-93
2021/11/29 02:28:31;;;;;;;3.17;1.25;;;2.00;84.10;;;;;;4896547;29;20056;-93
2021/11/29 02:30:58;;;;;;;2.35;1.00;;;2.00;84.10;;;;;;4913640;29;20057;-94
2021/11/29 02:33:29;;;;;;;1.30;0.75;;;2.00;84.10;;;;;;4911197;29;20117;-93
2021/11/29 02:35:56;;;;;;;2.47;0.80;;;2.00;84.10;;;;;;4911728;29;20536;-93
2021/11/29 02:38:23;;;;;;;1.92;0.90;;;2.00;84.10;;;;;;4911893;29;20049;-93
2021/11/29 02:40:50;;;;;;;3.03;0.73;;;2.00;84.10;;;;;;4895243;29;20109;-93
2021/11/29 02:43:17;;;;;;;2.13;1.35;;;2.00;84.10;;;;;;4898097;29;20124;-90
2021/11/29 02:45:44;;;;;;;1.90;0.80;;;2.00;84.10;;;;;;4898058;29;20060;-92
2021/11/29 02:48:11;;;;;;;3.17;0.80;;;2.00;84.10;;;;;;4896841;29;20053;-93
2021/11/29 02:50:38;;;;;;;1.85;0.90;;;2.00;84.10;;;;;;4897812;29;20067;-93
2021/11/29 02:53:09;;;;;;;2.20;0.98;;;2.00;84.10;;;;;;4894924;29;20107;-94
2021/11/29 02:55:38;;;;;;;4.20;0.90;;;2.00;84.10;;;;;;4895784;29;20470;-92
2021/11/29 02:58:06;;;;;;;1.80;0.80;;;2.00;84.10;;;;;;4898439;29;20056;-93
2021/11/29 03:00:34;;;;;;;2.45;0.80;;;2.00;84.10;;;;;;4896562;29;20054;-92
2021/11/29 03:03:07;;;;;;;1.73;0.90;;;2.00;84.10;;;;;;4896801;29;20052;-92
2021/11/29 03:05:34;;;;;;;1.83;0.95;;;2.00;84.10;;;;;;4896707;29;20127;-92
2021/11/29 03:08:02;;;;;;;1.98;1.00;;;2.00;84.10;;;;;;4896649;29;20052;-93
2021/11/29 03:10:30;;;;;;;2.83;0.90;;;2.00;84.10;;;;;;4897283;29;20052;-93
2021/11/29 03:12:57;;;;;;;1.65;0.90;;;1.90;84.10;;;;;;4896925;29;20061;-92
2021/11/29 03:15:24;;;;;;;1.77;0.93;;;1.90;84.10;;;;;;4894743;29;20057;-92
2021/11/29 03:17:51;;;;;;;1.75;0.82;;;2.00;84.10;;;;;;4896195;29;20048;-93
2021/11/29 03:20:18;;;;;;;2.15;1.08;;;1.90;84.10;;;;;;4894365;29;20055;-93
2021/11/29 03:22:45;;;;;;;2.60;1.20;;;1.90;84.10;;;;;;4896361;29;20531;-91
2021/11/29 03:25:12;;;;;;;1.92;1.00;;;1.90;84.10;;;;;;4898041;29;20053;-92
2021/11/29 03:27:40;;;;;;;2.90;1.38;;;1.90;84.10;;;;;;4894925;29;20048;-93
2021/11/29 03:30:09;;;;;;;3.17;1.20;;;1.90;84.10;;;;;;4895511;29;20060;-92
2021/11/29 03:32:38;;;;;;;1.85;1.02;;;1.90;84.10;;;;;;4894540;29;20057;-92
2021/11/29 03:35:08;;;;;;;3.13;1.42;;;1.90;84.10;;;;;;4895978;29;20052;-92
2021/11/29 03:37:35;;;;;;;3.17;1.40;;;1.90;84.10;;;;;;4894773;29;20495;-92
2021/11/29 03:40:05;;;;;;;2.40;1.30;;;1.90;84.10;;;;;;4896900;29;20060;-92
2021/11/29 03:42:32;;;;;;;2.72;1.38;;;1.90;84.10;;;;;;4895469;29;20052;-91
2021/11/29 03:45:02;;;;;;;3.55;1.58;;;1.90;84.10;;;;;;4893725;29;20048;-93
2021/11/29 03:47:29;;;;;;;2.80;1.60;;;1.90;84.10;;;;;;4894296;29;20048;-92
2021/11/29 03:49:56;;;;;;;3.45;1.45;;;1.90;84.10;;;;;;4894795;29;20053;-91
2021/11/29 03:52:47;;;;;;;2.20;1.20;;;1.90;84.10;;;;;;4896389;29;20143;-91
2021/11/29 03:55:15;;;;;;;3.17;1.73;;;1.90;84.20;;;;;;4893877;29;20048;-90
2021/11/29 03:57:42;;;;;;;3.22;1.75;;;1.90;84.20;;;;;;4894684;29;20056;-91
2021/11/29 04:00:09;;;;;;;3.20;1.73;;;1.90;84.20;;;;;;4910933;29;20057;-93
2021/11/29 04:02:36;;;;;;;3.17;1.67;;;1.90;84.20;;;;;;4894543;29;20063;-92
2021/11/29 04:05:04;;;;;;;3.17;1.65;;;1.90;84.20;;;;;;4910236;29;20072;-93
2021/11/29 04:07:31;;;;;;;3.10;1.67;;;1.90;84.20;;;;;;4894627;29;20079;-91
2021/11/29 04:09:58;;;;;;;3.05;1.70;;;1.90;84.20;;;;;;4911844;29;20069;-92
2021/11/29 04:12:25;;;;;;;3.08;1.67;;;1.90;84.20;;;;;;4909606;29;20060;-91
2021/11/29 04:14:52;;;;;;;3.53;2.03;;;1.90;84.20;;;;;;4910080;29;20120;-92
2021/11/29 04:17:19;;;;;;;3.45;2.00;;;1.90;84.20;;;;;;4910028;29;20052;-91
2021/11/29 04:19:46;;;;;;;3.05;1.63;;;1.90;84.20;;;;;;4910008;29;20057;-91
2021/11/29 04:22:18;;;;;;;3.67;1.98;;;1.90;84.20;;;;;;4895820;29;20068;-91
2021/11/29 04:24:46;;;;;;;3.55;1.95;;;1.90;84.20;;;;;;4910668;29;20056;-91
2021/11/29 04:27:13;;;;;;;4.10;2.13;;;1.90;84.20;;;;;;4894952;29;20100;-92
2021/11/29 04:29:43;;;;;;;3.28;1.83;;;1.90;84.10;;;;;;4895075;29;20041;-91
2021/11/29 04:32:10;;;;;;;3.20;1.70;;;1.90;84.10;;;;;;4895149;29;20056;-91
2021/11/29 04:34:38;;;;;;;3.20;1.77;;;1.90;84.10;;;;;;4893483;29;20045;-91
2021/11/29 04:37:06;;;;;;;7.60;1.95;;;1.90;84.10;;;;;;4896728;29;20056;-92
2021/11/29 04:39:35;;;;;;;3.83;2.00;;;1.90;84.10;;;;;;4892526;29;20052;-92
2021/11/29 04:42:02;;;;;;;3.58;1.90;;;1.90;84.10;;;;;;4893813;29;20115;-92
2021/11/29 04:44:29;;;;;;;2.97;1.67;;;1.90;84.10;;;;;;4894929;29;20052;-91
2021/11/29 04:46:56;;;;;;;4.25;2.50;;;1.90;84.10;;;;;;4893901;29;20052;-92
2021/11/29 04:49:23;;;;;;;3.70;1.90;;;1.90;84.10;;;;;;4897774;29;20071;-92
2021/11/29 04:51:50;;;;;;;3.95;2.05;;;1.90;84.10;;;;;;4898703;29;20048;-92
2021/11/29 04:54:18;;;;;;;3.30;1.83;;;1.90;84.10;;;;;;4898285;29;20129;-93
2021/11/29 04:56:45;;;;;;;3.08;1.73;;;1.90;84.10;;;;;;4898879;29;20052;-92
2021/11/29 04:59:12;;;;;;;3.78;2.25;;;1.90;84.10;;;;;;4897347;29;20052;-91
2021/11/29 05:01:39;;;;;;;3.45;2.00;;;1.90;84.10;;;;;;4898837;29;20068;-91
2021/11/29 05:04:07;;;;;;;4.15;2.08;;;1.90;84.10;;;;;;4900526;29;20395;-92
2021/11/29 05:06:36;;;;;;;4.50;2.25;;;1.90;84.20;;;;;;4896755;29;20053;-93
2021/11/29 05:09:05;;;;;;;3.50;2.10;;;1.90;84.20;;;;;;4898314;29;20059;-91
2021/11/29 05:11:33;;;;;;;3.83;2.30;;;1.90;84.10;;;;;;4897461;29;20049;-91
2021/11/29 05:14:00;;;;;;;4.40;2.22;;;1.90;84.20;;;;;;4898068;29;20427;-91
2021/11/29 05:16:27;;;;;;;4.10;2.58;;;1.90;84.20;;;;;;4898436;29;20075;-91
2021/11/29 05:18:55;;;;;;;4.05;2.38;;;1.90;84.20;;;;;;4915122;29;20052;-91
2021/11/29 05:21:22;;;;;;;3.67;1.92;;;1.90;84.20;;;;;;4898486;29;20059;-92
2021/11/29 05:23:50;;;;;;;4.57;2.15;;;1.90;84.20;;;;;;4898207;29;20517;-92
2021/11/29 05:26:25;;;;;;;3.63;2.05;;;1.90;84.20;;;;;;4898589;29;20055;-92
2021/11/29 05:28:52;;;;;;;4.15;2.42;;;1.90;84.20;;;;;;4896032;29;20061;-92
2021/11/29 05:31:21;;;;;;;4.28;2.40;;;1.90;84.20;;;;;;4899320;29;20056;-92
2021/11/29 05:33:48;;;;;;;3.80;2.25;;;1.90;84.20;;;;;;4899688;29;20052;-92
2021/11/29 05:36:17;;;;;;;4.38;2.40;;;1.90;84.20;;;;;;4898349;29;20399;-92
2021/11/29 05:38:45;;;;;;;5.30;2.60;;;1.90;84.20;;;;;;4892050;29;20116;-92
2021/11/29 05:41:13;;;;;;;3.85;2.25;;;1.90;84.20;;;;;;4896158;29;20502;-90
2021/11/29 05:43:40;;;;;;;3.50;2.10;;;1.90;84.20;;;;;;4898227;29;20497;-92
2021/11/29 05:46:09;;;;;;;4.93;2.25;;;1.90;84.20;;;;;;4900007;29;20053;-92
2021/11/29 05:48:37;;;;;;;4.93;2.20;;;1.90;84.20;;;;;;4912509;29;20116;-92
2021/11/29 05:51:04;;;;;;;4.18;2.40;;;1.90;84.20;;;;;;4912417;29;20060;-92
2021/11/29 05:53:31;;;;;;;5.40;2.28;;;1.90;84.20;;;;;;4910071;29;20053;-91
2021/11/29 05:56:02;;;;;;;4.35;2.15;;;1.90;84.20;;;;;;4913618;29;20059;-92
2021/11/29 05:58:29;;;;;;;4.00;2.20;;;1.90;84.20;;;;;;4897237;29;20060;-90
2021/11/29 06:00:56;;;;;;;3.65;2.17;;;1.90;84.20;;;;;;4892780;29;20068;-91
2021/11/29 06:03:23;;;;;;;4.88;2.22;;;1.90;84.20;;;;;;4904806;29;20090;-90
2021/11/29 06:05:50;;;;;;;4.50;2.22;;;1.90;84.20;;;;;;4897324;29;20083;-91
2021/11/29 06:08:17;;;;;;;3.95;2.22;;;1.90;84.20;;;;;;4894950;29;20116;-91
2021/11/29 06:10:44;;;;;;;3.85;2.08;;;1.90;84.10;;;;;;4897624;29;20506;-91
2021/11/29 06:13:11;;;;;;;3.83;2.20;;;1.90;84.20;;;;;;4899555;29;20491;-91
2021/11/29 06:15:38;;;;;;;5.15;2.22;;;1.90;84.10;;;;;;4896960;29;20217;-91
2021/11/29 06:18:05;;;;;;;4.15;2.38;;;1.90;84.10;;;;;;4897095;29;20052;-91
2021/11/29 06:20:32;;;;;;;5.43;2.30;;;1.90;84.10;;;;;;4897028;29;20053;-90
2021/11/29 06:23:00;;;;;;;4.10;2.47;;;1.90;84.10;;;;;;4897021;29;20064;-90
2021/11/29 06:25:27;;;;;;;5.07;2.50;;;1.90;84.10;;;;;;4896048;29;20473;-92
2021/11/29 06:27:55;;;;;;;3.78;2.20;;;1.90;84.10;;;;;;4913256;29;20052;-91
2021/11/29 06:30:23;;;;;;;4.35;2.20;;;1.90;84.10;;;;;;4910162;29;20076;-91
2021/11/29 06:32:52;;;;;;;4.65;2.47;;;1.90;84.10;;;;;;4911393;29;20060;-91
2021/11/29 06:35:19;;;;;;;3.92;2.20;;;1.90;84.10;;;;;;4910217;29;20053;-90
2021/11/29 06:37:51;;;;;;;4.63;2.22;;;1.90;84.10;;;;;;4909341;29;20060;-91
2021/11/29 06:40:18;;;;;;;3.90;2.20;;;1.80;84.10;;;;;;4896766;29;20052;-91
2021/11/29 06:42:45;;;;;;;3.83;2.30;;;1.90;84.10;;;;;;4910306;29;20111;-91
2021/11/29 06:45:18;;;;;;;4.30;2.38;;;1.90;84.10;;;;;;4896874;29;20052;-91
2021/11/29 06:47:44;;;;;;;3.92;2.28;;;1.80;84.10;;;;;;4897198;29;20056;-90
2021/11/29 06:50:12;;;;;;;3.92;2.20;;;1.90;84.10;;;;;;4896687;29;20052;-91
2021/11/29 06:52:39;;;;;;;3.60;2.17;;;1.80;84.10;;;;;;4896702;29;20057;-92
2021/11/29 06:55:11;;;;;;;4.57;2.63;;;1.90;84.20;;;;;;4898555;29;20056;-91
2021/11/29 06:57:39;;;;;;;4.60;2.42;;;1.80;84.20;;;;;;4896671;29;20553;-92
2021/11/29 07:00:07;;;;;;;6.07;2.70;;;1.80;84.20;;;;;;4911899;29;20062;-92
2021/11/29 07:02:35;;;;;;;5.28;2.95;;;1.80;84.20;;;;;;4899523;29;20032;-94
2021/11/29 07:05:02;;;;;;;5.47;3.17;;;1.80;84.20;;;;;;4897267;29;20052;-92
2021/11/29 07:07:29;;;;;;;8.35;3.15;;;1.90;84.20;;;;;;4898215;29;20053;-88
2021/11/29 07:09:56;;;;;;;5.38;3.45;;;1.80;84.20;;;;;;4901678;29;20583;-92
2021/11/29 07:12:23;;;;;;;5.15;3.55;;;1.80;84.20;;;;;;4890803;29;20059;-91
2021/11/29 07:14:51;;;;;;;5.70;3.60;;;1.80;84.20;;;;;;4896544;29;20068;-92
2021/11/29 07:17:18;;;;;;;6.22;3.90;;;1.90;84.20;;;;;;4896528;29;20111;-92
2021/11/29 07:19:50;;;;;;;6.15;3.67;;;1.80;84.20;;;;;;4895301;29;20053;-91
2021/11/29 07:22:17;;;;;;;6.45;3.97;;;1.80;84.20;;;;;;4897707;29;20064;-92
2021/11/29 07:24:44;;;;;;;6.60;3.90;;;1.90;84.30;;;;;;4894909;29;20048;-92
2021/11/29 07:27:11;;;;;;;6.38;4.43;;;1.90;84.30;;;;;;4894724;29;20450;-91
2021/11/29 07:29:38;;;;;;;9.52;5.10;;;1.90;84.30;;;;;;4896214;29;20056;-91
2021/11/29 07:32:05;;;;;;;8.57;4.45;;;1.80;84.30;;;;;;4894076;29;20048;-91
2021/11/29 07:34:32;;;;;;;7.45;4.13;;;1.90;84.30;;;;;;4898032;29;20065;-91
2021/11/29 07:37:00;;;;;;;8.98;5.50;;;1.90;84.30;;;;;;4899398;29;20413;-91
2021/11/29 07:39:27;;;;;;;11.02;5.75;;;1.90;84.30;;;;;;4895708;29;20057;-90
2021/11/29 07:41:57;;;;;;;8.45;5.25;;;1.90;84.30;;;;;;4896992;29;20104;-92
2021/11/29 07:44:24;;;;;;;9.02;5.88;;;1.90;84.30;;;;;;4891272;29;20049;-91
2021/11/29 07:46:51;;;;;;;12.55;6.45;;;1.90;84.30;;;;;;4896880;29;20056;-92
2021/11/29 07:49:18;;;;;;;9.27;6.00;;;1.80;84.30;;;;;;4897318;29;20048;-91
2021/11/29 07:51:45;;;;;;;11.80;6.35;;;1.80;84.30;;;;;;4896076;29;20067;-91
2021/11/29 07:54:12;;;;;;;9.23;6.07;;;1.80;84.30;;;;;;4896596;29;20053;-92
2021/11/29 07:56:39;;;;;;;11.18;6.18;;;1.90;84.30;;;;;;4896765;29;20450;-91
2021/11/29 07:59:06;;;;;;;10.30;6.78;;;1.80;84.30;;;;;;4896697;29;20071;-90
2021/11/29 08:01:33;;;;;;;11.73;6.65;;;1.80;84.30;;;;;;4896260;29;20053;-92
2021/11/29 08:04:00;;;;;;;8.98;6.57;;;1.80;84.30;;;;;;4912677;29;20053;-90
2021/11/29 08:06:27;;;;;;;11.05;6.95;;;1.80;84.30;;;;;;4896416;29;20060;-90
2021/11/29 08:08:55;;;;;;;10.75;6.60;;;1.80;84.30;;;;;;4891170;29;20059;-92
2021/11/29 08:11:22;;;;;;;10.15;7.05;;;1.80;84.30;;;;;;4895544;29;20525;-90
2021/11/29 08:13:49;;;;;;;12.35;7.40;;;1.80;84.30;;;;;;4898011;29;20104;-93
2021/11/29 08:16:16;;;;;;;12.52;6.97;;;1.80;84.30;;;;;;4897773;29;20426;-91
2021/11/29 08:18:44;;;;;;;9.00;6.75;;;1.80;84.30;;;;;;4896657;29;20060;-92
2021/11/29 08:21:11;;;;;;;10.02;7.20;;;1.80;84.30;;;;;;4896134;29;20056;-93
2021/11/29 08:23:38;;;;;;;9.82;6.90;;;1.80;84.30;;;;;;4892490;29;20060;-91
2021/11/29 08:26:27;;;;;;;11.35;7.18;;;1.80;84.30;;;;;;4896145;29;20048;-92
2021/11/29 08:28:54;;;;;;;10.85;7.40;;;1.80;84.30;;;;;;4896026;29;20048;-92
2021/11/29 08:31:21;;;;;;;14.38;7.53;;;1.90;84.40;;;;;;4893713;29;20506;-92
2021/11/29 08:33:48;;;;;;;10.65;7.88;;;1.80;84.40;;;;;;4898094;29;20052;-92
2021/11/29 08:36:15;;;;;;;10.52;7.55;;;1.80;84.40;;;;;;4895916;29;20045;-92
2021/11/29 08:38:43;;;;;;;13.48;8.13;;;1.90;84.40;;;;;;4894761;29;20041;-91
2021/11/29 08:41:10;;;;;;;11.10;7.60;;;1.80;84.40;;;;;;4896647;29;20056;-93
2021/11/29 08:43:38;;;;;;;10.45;7.20;;;1.80;84.40;;;;;;4894897;29;20084;-91
2021/11/29 08:46:05;;;;;;;11.15;7.78;;;1.90;84.40;;;;;;4897362;29;20056;-91
2021/11/29 08:48:33;;;;;;;10.88;7.55;;;1.90;84.40;;;;;;4895932;29;20059;-91
2021/11/29 08:51:00;;;;;;;10.82;7.57;;;1.90;84.50;;;;;;4895886;29;20049;-92
2021/11/29 08:53:28;;;;;;;12.27;8.38;;;1.90;84.50;;;;;;4895282;29;20048;-92
2021/11/29 08:55:55;;;;;;;10.13;7.78;;;1.90;84.50;;;;;;4897595;29;20055;-92
2021/11/29 09:00:57;;;;;;;10.07;7.40;;;1.90;84.50;;;;;;5016356;23;20048;31
2021/11/29 09:05:59;;;;;;;11.13;7.65;;;1.90;84.50;;;;;;4920459;29;20280;-92
2021/11/29 09:08:27;;;;;;;12.48;7.82;;;1.90;84.50;;;;;;4918420;29;20048;-93
2021/11/29 09:10:54;;;;;;;10.63;7.63;;;1.90;84.60;;;;;;4916045;29;20064;-92
2021/11/29 09:13:40;;;;;;;11.25;7.80;;;1.90;84.60;;;;;;4915497;29;20066;-95
2021/11/29 09:16:11;;;;;;;12.43;8.25;;;1.90;84.60;;;;;;4916029;29;20071;-94
2021/11/29 09:18:40;;;;;;;12.43;7.45;;;2.00;84.60;;;;;;4914942;29;20055;-92
2021/11/29 09:21:08;;;;;;;11.90;7.13;;;2.00;84.60;;;;;;4915184;29;20054;-94
2021/11/29 09:23:35;;;;;;;10.82;7.15;;;2.00;84.60;;;;;;4913000;29;20063;-94
2021/11/29 09:26:03;;;;;;;10.73;7.45;;;2.00;84.70;;;;;;4915298;29;20471;-92
2021/11/29 09:28:31;;;;;;;10.57;6.60;;;2.00;84.70;;;;;;4915747;29;20534;-93
2021/11/29 09:30:58;;;;;;;9.48;6.47;;;2.00;84.70;;;;;;4916311;29;20055;-93
2021/11/29 09:33:25;;;;;;;9.88;6.78;;;2.00;84.70;;;;;;4915057;29;20063;-92
2021/11/29 09:35:52;;;;;;;9.20;5.88;;;2.10;84.80;;;;;;4917282;29;20502;-90
2021/11/29 09:38:19;;;;;;;10.02;6.20;;;2.10;84.80;;;;;;4916565;29;20587;-95
2021/11/29 09:40:47;;;;;;;9.80;6.63;;;2.20;84.90;;;;;;4918739;29;20049;-95
2021/11/29 09:43:16;;;;;;;9.32;6.63;;;2.20;85.00;;;;;;4918841;29;20063;-93
2021/11/29 09:45:46;;;;;;;9.73;6.10;;;2.30;85.00;;;;;;4933146;29;20076;-95
2021/11/29 09:48:14;;;;;;;10.20;6.43;;;2.40;85.10;;;;;;4918173;29;20513;-93
2021/11/29 09:50:48;;;;;;;9.68;5.78;;;2.50;85.00;;;;;;4910031;29;20052;-94
2021/11/29 09:53:18;;;;;;;11.65;6.75;;;2.50;84.90;;;;;;4917323;29;20052;-94
2021/11/29 09:55:45;;;;;;;9.30;6.38;;;2.50;84.90;;;;;;4918565;29;20048;-94
2021/11/29 09:58:12;;;;;;;8.40;6.05;;;2.60;84.80;;;;;;4918587;29;20108;-92
2021/11/29 10:00:48;;;;;;;8.52;6.18;;;2.60;84.70;;;;;;4917596;29;20100;-93
2021/11/29 10:03:16;;;;;;;10.25;6.53;;;2.60;84.60;;;;;;4917990;29;20056;-93
2021/11/29 10:05:43;;;;;;;10.45;6.53;;;2.70;84.60;;;;;;4917560;29;20064;-90
2021/11/29 10:08:38;;;;;;;11.95;7.90;;;2.70;84.50;;;;;;4917430;29;20055;-92
2021/11/29 10:11:25;;;;;;;13.50;7.97;;;2.60;84.50;;;;;;4907805;29;20055;-91
2021/11/29 10:13:55;;;;;;;13.25;9.57;;;2.70;84.50;;;;;;4915817;29;20084;-92
2021/11/29 10:16:40;;;;;;;14.75;9.82;;;2.70;84.50;;;;;;4920273;29;20059;-94
2021/11/29 10:19:38;;;;;;;18.17;11.65;;;2.70;84.50;;;;;;4918343;29;20131;-91
2021/11/29 10:22:18;;;;;;;18.38;13.10;;;2.70;84.60;;;;;;4917871;29;20063;-92
2021/11/29 10:24:46;;;;;;;17.60;11.98;;;2.70;84.70;;;;;;4917405;29;20532;-93
2021/11/29 10:27:14;;;;;;;18.15;13.00;;;2.80;84.80;;;;;;4918216;29;20079;-92
2021/11/29 10:29:55;;;;;;;20.20;13.70;;;2.90;84.80;;;;;;4918280;29;20052;-92
2021/11/29 10:32:34;;;;;;;23.35;15.57;;;3.00;84.80;;;;;;4918803;29;20067;-93
2021/11/29 10:35:01;;;;;;;25.70;17.02;;;3.20;84.90;;;;;;4918478;29;20103;-92
2021/11/29 10:37:34;;;;;;;23.20;16.77;;;3.40;84.80;;;;;;4918287;29;20442;-92
2021/11/29 10:40:04;;;;;;;21.73;15.52;;;3.50;84.70;;;;;;4917750;29;20101;-92
2021/11/29 10:42:31;;;;;;;21.80;15.30;;;3.70;84.70;;;;;;4918209;29;20064;-94
2021/11/29 10:44:58;;;;;;;25.13;16.00;;;3.90;84.50;;;;;;4918055;29;20426;-94
2021/11/29 10:47:27;;;;;;;25.08;15.75;;;4.00;84.40;;;;;;4918610;29;20055;-94
2021/11/29 10:49:56;;;;;;;23.00;14.80;;;4.10;84.30;;;;;;4920760;29;20052;-95
2021/11/29 10:52:28;;;;;;;25.38;15.13;;;4.20;84.20;;;;;;4925984;29;20059;-94
2021/11/29 10:54:57;;;;;;;23.88;14.90;;;4.40;84.10;;;;;;4923509;29;20059;-95
2021/11/29 10:57:26;;;;;;;26.38;15.15;;;4.50;83.90;;;;;;4929980;29;20048;-94
2021/11/29 10:59:54;;;;;;;24.77;14.13;;;4.60;83.80;;;;;;4929465;29;20132;-92
2021/11/29 11:02:24;;;;;;;22.92;13.68;;;4.60;83.70;;;;;;4927482;29;20048;-96
2021/11/29 11:05:08;;;;;;;29.10;14.90;;;4.70;83.60;;;;;;4926273;29;20119;-93
2021/11/29 11:07:39;;;;;;;21.00;13.57;;;4.80;83.50;;;;;;4931375;29;20539;-94
2021/11/29 11:10:09;;;;;;;21.27;13.90;;;4.80;83.40;;;;;;4929403;29;20076;-94
2021/11/29 11:12:37;;;;;;;22.63;13.43;;;4.80;83.30;;;;;;4931336;29;20048;-94
2021/11/29 11:15:25;;;;;;;27.40;14.23;;;4.80;83.20;;;;;;4923350;29;20130;-93
2021/11/29 11:18:01;;;;;;;25.88;13.38;;;4.80;83.20;;;;;;4922507;29;20052;-93
2021/11/29 11:20:28;;;;;;;18.48;13.05;;;4.70;83.10;;;;;;4921172;29;20156;-94
2021/11/29 11:22:56;;;;;;;22.15;13.35;;;4.70;83.10;;;;;;4923352;29;20055;-95
2021/11/29 11:25:26;;;;;;;25.48;13.93;;;4.70;83.20;;;;;;4921619;29;20056;-94
2021/11/29 11:27:54;;;;;;;21.65;13.02;;;4.80;83.20;;;;;;4923057;29;20316;-93
2021/11/29 11:30:21;;;;;;;24.02;12.85;;;4.70;83.30;;;;;;4922749;29;20048;-94
2021/11/29 11:32:54;;;;;;;32.45;13.35;;;4.80;83.30;;;;;;4920540;29;20553;-93
2021/11/29 11:35:29;;;;;;;18.38;12.48;;;4.80;83.40;;;;;;4921632;29;20055;-93
2021/11/29 11:38:03;;;;;;;21.27;12.45;;;4.80;83.40;;;;;;4918084;29;20080;-91
2021/11/29 11:40:31;;;;;;;;;;;4.80;83.40;;;;;;4918123;29;20158;-93
2021/11/29 11:43:01;;;;;;;17.75;11.10;;;4.80;83.50;;;;;;4918839;29;19979;-92
2021/11/29 11:45:31;;;;;;;21.75;12.40;;;4.80;83.50;;;;;;4919750;29;20048;-95
2021/11/29 11:47:59;;;;;;;26.77;11.52;;;4.80;83.50;;;;;;4921025;29;20055;-95
2021/11/29 11:50:30;;;;;;;18.55;11.57;;;4.80;83.50;;;;;;4921770;29;20044;-94
2021/11/29 11:52:59;;;;;;;24.50;13.02;;;4.80;83.60;;;;;;4923945;29;20052;-95
2021/11/29 11:55:33;;;;;;;24.85;13.07;;;4.80;83.60;;;;;;4926487;29;20055;-95
2021/11/29 11:58:03;;;;;;;25.60;11.90;;;4.80;83.70;;;;;;4926397;29;20056;-95
2021/11/29 12:00:36;;;;;;;21.13;11.75;;;4.80;83.80;;;;;;4926636;29;20052;-95
2021/11/29 12:03:17;;;;;;;21.25;11.52;;;4.80;83.80;;;;;;4925117;29;20060;-95
2021/11/29 12:05:53;;;;;;;21.33;12.18;;;4.90;83.90;;;;;;4924564;29;20052;-93
2021/11/29 12:08:39;;;;;;;17.67;10.60;;;4.90;83.90;;;;;;4923200;29;20058;-94
2021/11/29 12:11:26;;;;;;;19.67;11.23;;;4.90;84.00;;;;;;5126055;23;20053;-94
2021/11/29 12:14:11;;;;;;;18.60;11.23;;;4.90;84.00;;;;;;4897853;29;20067;-91
2021/11/29 12:16:49;;;;;;;17.25;10.27;;;4.90;84.00;;;;;;4903983;29;20049;-94
2021/11/29 12:19:40;;;;;;;13.45;10.48;;;4.90;84.00;;;;;;4897595;29;20056;-95
2021/11/29 12:22:16;;;;;;;20.80;11.30;;;4.90;84.00;;;;;;4903108;29;20072;-96
2021/11/29 12:24:46;;;;;;;16.90;11.40;;;5.00;84.00;;;;;;4887678;29;20060;-95
2021/11/29 12:27:14;;;;;;;16.40;10.60;;;5.00;84.10;;;;;;4884538;29;20112;-93
2021/11/29 12:29:43;;;;;;;18.05;11.35;;;5.00;84.10;;;;;;4884018;29;20112;-95
2021/11/29 12:32:15;;;;;;;21.17;11.32;;;5.00;84.10;;;;;;4883709;29;20474;-94
2021/11/29 12:34:51;;;;;;;18.35;10.70;;;5.00;84.10;;;;;;4867819;29;20057;-94
2021/11/29 12:37:20;;;;;;;20.58;10.45;;;5.10;84.00;;;;;;4898353;29;20052;-94
2021/11/29 12:40:14;;;;;;;15.90;10.80;;;5.20;84.00;;;;;;4884347;29;20053;-93
2021/11/29 12:42:42;;;;;;;12.30;9.90;;;5.20;84.00;;;;;;4876075;29;20053;-93
2021/11/29 12:45:17;;;;;;;15.75;9.35;;;5.20;84.00;;;;;;4892767;29;20043;-94
2021/11/29 12:47:59;;;;;;;14.60;9.80;;;5.20;83.90;;;;;;4897896;29;20053;-94
2021/11/29 12:50:31;;;;;;;16.15;9.63;;;5.30;83.90;;;;;;4889438;29;20060;-94
2021/11/29 12:53:17;;;;;;;13.02;8.68;;;5.30;83.80;;;;;;4876547;29;20056;-93
2021/11/29 12:55:50;;;;;;;16.05;8.73;;;5.40;83.80;;;;;;4890560;29;20045;-95
2021/11/29 12:58:28;;;;;;;12.02;8.13;;;5.40;83.70;;;;;;4896879;29;20071;-93
2021/11/29 13:01:04;;;;;;;14.80;9.00;;;5.40;83.70;;;;;;4909860;29;20060;-95
2021/11/29 13:03:40;;;;;;;15.63;9.68;;;5.40;83.60;;;;;;4908978;29;20057;-95
2021/11/29 13:06:08;;;;;;;15.85;8.10;;;5.40;83.50;;;;;;4910220;29;20068;-94
2021/11/29 13:08:39;;;;;;;13.75;8.65;;;5.50;83.40;;;;;;4894083;29;20045;-94
2021/11/29 13:11:31;;;;;;;14.02;7.85;;;5.50;83.30;;;;;;4899391;29;20135;-94